Time;durP1;ratioP1;P1;durP2;ratioP2;P2;SDS_P1;SDS_P2;PMS_P1;PMS_P2;Temp;Humidity;BMP_temperature;BMP_pressure;BME280_temperature;BME280_humidity;BME280_pressure;Samples;Min_cycle;Max_cycle;Signal;HPM_P1;HPM_P2
2021/07/07 00:01:36;;;;;;;5.35;4.83;;;;;;;22.45;100.00;100566.17;1784063;79;21513;-44
2021/07/07 00:04:03;;;;;;;5.92;5.25;;;;;;;22.47;100.00;100570.94;1769027;79;20971;-46
2021/07/07 00:06:29;;;;;;;5.35;4.85;;;;;;;22.46;100.00;100568.74;1733223;81;21450;-45
2021/07/07 00:08:56;;;;;;;5.83;4.25;;;;;;;22.49;100.00;100574.34;1769579;80;20992;-43
2021/07/07 00:11:22;;;;;;;5.47;4.87;;;;;;;22.48;100.00;100572.66;1759804;79;21020;-43
2021/07/07 00:13:49;;;;;;;5.60;5.08;;;;;;;22.48;100.00;100580.81;1768660;79;21535;-46
2021/07/07 00:16:16;;;;;;;6.83;4.55;;;;;;;22.47;100.00;100577.22;1761334;79;21008;-47
2021/07/07 00:18:42;;;;;;;5.80;4.67;;;;;;;22.45;100.00;100578.41;1766736;79;20993;-44
2021/07/07 00:21:11;;;;;;;13.80;5.15;;;;;;;22.44;100.00;100586.22;1778365;79;20969;-48
2021/07/07 00:23:37;;;;;;;5.37;4.85;;;;;;;22.44;100.00;100586.22;1763320;79;20986;-46
2021/07/07 00:26:04;;;;;;;5.65;5.08;;;;;;;22.43;100.00;100583.17;1732915;81;20978;-45
2021/07/07 00:28:30;;;;;;;7.53;4.67;;;;;;;22.41;100.00;100584.69;1730915;81;21002;-44
2021/07/07 00:30:56;;;;;;;5.67;4.28;;;;;;;22.39;100.00;100587.22;1728117;81;20951;-44
2021/07/07 00:33:23;;;;;;;6.67;5.00;;;;;;;22.36;100.00;100582.13;1736231;81;21010;-45
2021/07/07 00:35:50;;;;;;;5.12;4.60;;;;;;;22.35;100.00;100589.42;1729585;81;20982;-47
2021/07/07 00:38:16;;;;;;;5.45;4.95;;;;;;;22.35;100.00;100588.55;1729342;81;20957;-47
2021/07/07 00:40:44;;;;;;;4.55;4.15;;;;;;;22.36;100.00;100590.27;1728187;81;20994;-47
2021/07/07 00:43:13;;;;;;;7.72;4.85;;;;;;;22.37;100.00;100591.95;1739109;81;20983;-46
2021/07/07 00:45:40;;;;;;;7.75;5.75;;;;;;;22.38;100.00;100586.89;1732935;81;21046;-46
2021/07/07 00:48:07;;;;;;;5.47;4.87;;;;;;;22.37;100.00;100586.52;1731735;81;21010;-46
2021/07/07 00:50:35;;;;;;;5.25;4.75;;;;;;;22.35;100.00;100586.71;1729448;81;20947;-45
2021/07/07 00:53:02;;;;;;;6.67;5.85;;;;;;;22.35;100.00;100591.27;1729448;81;21030;-45
2021/07/07 00:55:30;;;;;;;5.87;4.95;;;;;;;22.33;100.00;100595.52;1728290;81;20970;-44
2021/07/07 00:57:58;;;;;;;5.12;4.62;;;;;;;22.31;100.00;100587.20;1730062;81;20970;-45
2021/07/07 01:00:24;;;;;;;5.55;4.50;;;;;;;22.31;100.00;100592.11;1726601;81;20989;-48
2021/07/07 01:02:54;;;;;;;6.10;4.53;;;;;;;22.30;100.00;100587.71;1732334;81;20986;-47
2021/07/07 01:05:20;;;;;;;5.75;5.20;;;;;;;22.29;100.00;100594.14;1733156;81;21883;-44
2021/07/07 01:07:47;;;;;;;6.67;5.72;;;;;;;22.31;100.00;100592.63;1731950;81;20974;-47
2021/07/07 01:10:15;;;;;;;7.95;5.40;;;;;;;22.28;100.00;100590.24;1733450;81;21018;-47
2021/07/07 01:12:42;;;;;;;6.15;4.85;;;;;;;22.27;100.00;100593.44;1734255;81;21446;-47
2021/07/07 01:15:10;;;;;;;4.87;4.40;;;;;;;22.24;100.00;100593.77;1727851;81;20994;-47
2021/07/07 01:17:37;;;;;;;5.53;4.53;;;;;;;22.19;100.00;100593.37;1730187;81;21537;-44
2021/07/07 01:20:09;;;;;;;4.70;4.30;;;;;;;22.16;100.00;100589.13;1732095;81;20967;-45
2021/07/07 01:22:37;;;;;;;7.33;5.15;;;;;;;22.15;100.00;100596.94;1752206;81;21366;-47
2021/07/07 01:25:06;;;;;;;5.55;4.83;;;;;;;22.13;100.00;100599.47;1773275;79;21457;-44
2021/07/07 01:27:33;;;;;;;5.58;5.08;;;;;;;22.12;100.00;100595.88;1781286;79;21434;-45
2021/07/07 01:29:59;;;;;;;6.00;5.12;;;;;;;22.10;100.00;100603.84;1781472;79;20971;-44
2021/07/07 01:32:25;;;;;;;7.95;4.72;;;;;;;22.09;100.00;100606.23;1778641;79;20956;-44
2021/07/07 01:34:53;;;;;;;11.55;5.85;;;;;;;22.07;100.00;100599.59;1774411;79;20965;-46
2021/07/07 01:37:19;;;;;;;5.85;5.25;;;;;;;22.04;100.00;100599.92;1779522;79;20959;-45
2021/07/07 01:39:46;;;;;;;5.08;4.67;;;;;;;22.03;100.00;100604.50;1744647;80;20966;-43
2021/07/07 01:42:12;;;;;;;6.62;4.85;;;;;;;22.00;100.00;100612.98;1735482;79;20935;-43
2021/07/07 01:44:39;;;;;;;5.40;4.90;;;;;;;21.98;100.00;100606.00;1770919;79;20979;-44
2021/07/07 01:47:06;;;;;;;7.40;5.00;;;;;;;21.98;100.00;100608.72;1770223;79;20933;-45
2021/07/07 01:49:33;;;;;;;5.60;4.20;;;;;;;21.98;100.00;100606.84;1768140;79;20965;-45
2021/07/07 01:51:59;;;;;;;7.62;4.50;;;;;;;21.98;100.00;100613.63;1769272;79;21485;-45
2021/07/07 01:54:26;;;;;;;6.03;5.20;;;;;;;21.98;100.00;100616.34;1771103;79;20970;-44
2021/07/07 01:56:53;;;;;;;14.03;8.50;;;;;;;22.00;100.00;100622.98;1765443;79;20902;-44
2021/07/07 01:59:19;;;;;;;8.95;8.15;;;;;;;22.01;100.00;100617.89;1773894;79;21009;-45
2021/07/07 02:01:46;;;;;;;5.80;5.20;;;;;;;22.01;100.00;100616.02;1768961;79;20974;-46
2021/07/07 02:04:12;;;;;;;5.35;4.85;;;;;;;21.98;100.00;100620.42;1788152;79;20956;-43
2021/07/07 02:06:39;;;;;;;8.68;5.00;;;;;;;21.95;100.00;100622.62;1788016;79;20988;-42
2021/07/07 02:09:06;;;;;;;7.30;4.97;;;;;;;21.91;100.00;100618.51;1789891;79;20970;-44
2021/07/07 02:11:34;;;;;;;5.53;5.03;;;;;;;21.90;100.00;100627.64;1785770;79;21427;-44
2021/07/07 02:14:02;;;;;;;5.42;4.92;;;;;;;21.87;100.00;100625.25;1784306;79;21023;-45
2021/07/07 02:16:29;;;;;;;6.30;5.17;;;;;;;21.84;100.00;100630.50;1778300;79;20990;-45
2021/07/07 02:18:56;;;;;;;5.92;5.42;;;;;;;21.83;100.00;100628.81;1754420;80;20910;-41
2021/07/07 02:21:22;;;;;;;9.78;5.08;;;;;;;21.81;100.00;100634.38;1744292;80;20962;-44
2021/07/07 02:23:49;;;;;;;7.55;4.50;;;;;;;21.79;100.00;100640.98;1752850;80;21304;-44
2021/07/07 02:26:17;;;;;;;4.85;4.30;;;;;;;21.78;100.00;100645.56;1757285;80;20949;-45
2021/07/07 02:28:45;;;;;;;6.42;4.55;;;;;;;21.79;100.00;100637.75;1754974;80;20946;-44
2021/07/07 02:31:11;;;;;;;5.05;4.33;;;;;;;21.82;100.00;100646.08;1756033;80;21024;-43
2021/07/07 02:33:38;;;;;;;7.72;5.28;;;;;;;21.82;100.00;100646.95;1756829;80;20950;-45
2021/07/07 02:36:05;;;;;;;6.10;5.50;;;;;;;21.83;100.00;100650.00;1783352;79;21004;-44
2021/07/07 02:38:32;;;;;;;7.40;6.67;;;;;;;21.85;100.00;100654.41;1783635;79;20980;-45
2021/07/07 02:40:58;;;;;;;5.72;5.08;;;;;;;21.84;100.00;100645.42;1781768;79;21872;-44
2021/07/07 02:43:25;;;;;;;5.65;4.70;;;;;;;21.83;100.00;100651.88;1777051;79;20948;-42
2021/07/07 02:45:52;;;;;;;4.78;4.30;;;;;;;21.83;100.00;100650.00;1783874;79;20951;-43
2021/07/07 02:48:18;;;;;;;5.00;4.00;;;;;;;21.83;100.00;100655.94;1787417;79;21506;-44
2021/07/07 02:50:46;;;;;;;5.10;4.55;;;;;;;21.81;100.00;100656.60;1784437;79;20992;-45
2021/07/07 02:53:14;;;;;;;6.80;5.03;;;;;;;21.80;100.00;100655.76;1757370;80;20948;-44
2021/07/07 02:55:41;;;;;;;7.05;3.98;;;;;;;21.78;100.00;100653.70;1789468;79;20929;-45
2021/07/07 02:58:09;;;;;;;4.87;4.37;;;;;;;21.76;100.00;100656.23;1739439;81;21607;-45
2021/07/07 03:00:39;;;;;;;6.10;4.35;;;;;;;21.73;100.00;100657.91;1781970;79;20946;-43
2021/07/07 03:03:12;;;;;;;4.40;4.00;;;;;;;21.71;100.00;100659.92;1782572;79;20946;-44
2021/07/07 03:05:51;;;;;;;7.10;4.70;;;;;;;21.67;100.00;100660.75;1786744;79;21477;-44
2021/07/07 03:08:18;;;;;;;5.50;4.75;;;;;;;21.64;100.00;100664.27;1760014;80;20970;-45
2021/07/07 03:10:45;;;;;;;5.33;4.83;;;;;;;21.63;100.00;100669.36;1791325;79;20969;-45
2021/07/07 03:13:13;;;;;;;6.78;4.90;;;;;;;21.61;100.00;100677.13;1755921;80;20922;-43
2021/07/07 03:15:40;;;;;;;5.08;3.92;;;;;;;21.61;100.00;100677.64;1757863;80;21459;-45
2021/07/07 03:18:07;;;;;;;5.87;3.83;;;;;;;21.63;100.00;100678.34;1786580;79;20939;-45
2021/07/07 03:20:34;;;;;;;7.62;4.90;;;;;;;21.63;100.00;100680.20;1782191;79;21888;-44
2021/07/07 03:23:02;;;;;;;6.53;4.05;;;;;;;21.63;100.00;100686.98;1781144;79;20992;-45
2021/07/07 03:25:29;;;;;;;6.30;4.70;;;;;;;21.59;100.00;100686.44;1778908;78;20999;-43
2021/07/07 03:27:56;;;;;;;4.62;4.20;;;;;;;21.57;100.00;100678.95;1782302;79;20978;-50
2021/07/07 03:30:26;;;;;;;4.85;4.45;;;;;;;21.55;100.00;100682.35;1776902;79;20985;-45
2021/07/07 03:32:54;;;;;;;4.33;3.93;;;;;;;21.52;100.00;100686.70;1754326;80;20950;-47
2021/07/07 03:35:22;;;;;;;5.40;4.53;;;;;;;21.50;100.00;100690.95;1780252;79;21654;-42
2021/07/07 03:37:49;;;;;;;5.97;4.42;;;;;;;21.50;100.00;100688.75;1750945;80;20939;-41
2021/07/07 03:40:18;;;;;;;6.62;5.12;;;;;;;21.46;100.00;100696.33;1750244;80;20916;-42
2021/07/07 03:42:44;;;;;;;5.33;4.55;;;;;;;21.42;100.00;100697.66;1750549;80;21011;-45
2021/07/07 03:45:14;;;;;;;5.15;4.65;;;;;;;21.39;100.00;100695.23;1750322;80;20986;-41
2021/07/07 03:47:40;;;;;;;8.58;7.78;;;;;;;21.38;100.00;100698.45;1754023;80;20898;-42
2021/07/07 03:50:08;;;;;;;7.62;6.05;;;;;;;21.37;100.00;100695.38;1752018;80;20935;-42
2021/07/07 03:52:35;;;;;;;5.83;5.25;;;;;;;21.34;100.00;100699.76;1753529;80;20938;-42
2021/07/07 03:55:07;;;;;;;8.58;5.50;;;;;;;21.34;100.00;100703.83;1754971;81;21500;-44
2021/07/07 03:57:34;;;;;;;6.87;4.42;;;;;;;21.34;100.00;100705.18;1751746;80;20989;-43
2021/07/07 04:00:00;;;;;;;6.40;4.70;;;;;;;21.34;100.00;100709.25;1751623;80;20942;-41
2021/07/07 04:02:27;;;;;;;5.35;4.33;;;;;;;21.34;100.00;100704.30;1754799;80;20946;-40
2021/07/07 04:04:53;;;;;;;5.33;4.78;;;;;;;21.36;100.00;100702.30;1751666;80;21327;-41
2021/07/07 04:07:21;;;;;;;5.90;4.72;;;;;;;21.38;100.00;100703.88;1749803;80;21015;-47
2021/07/07 04:09:47;;;;;;;5.33;4.50;;;;;;;21.39;100.00;100706.95;1751703;80;21441;-41
2021/07/07 04:12:14;;;;;;;8.38;4.72;;;;;;;21.42;100.00;100708.98;1753273;80;20926;-45
2021/07/07 04:14:40;;;;;;;8.50;5.20;;;;;;;21.44;100.00;100705.63;1749828;80;20938;-48
2021/07/07 04:17:08;;;;;;;6.37;4.03;;;;;;;21.48;100.00;100702.96;1748074;80;21480;-41
2021/07/07 04:19:35;;;;;;;6.33;4.75;;;;;;;21.50;100.00;100703.16;1751397;80;21034;-41
2021/07/07 04:22:02;;;;;;;5.10;4.37;;;;;;;21.53;100.00;100712.84;1749421;80;21533;-42
2021/07/07 04:24:29;;;;;;;7.80;4.40;;;;;;;21.57;100.00;100713.73;1755260;80;20939;-42
2021/07/07 04:26:56;;;;;;;4.87;4.17;;;;;;;21.61;100.00;100717.83;1781828;79;20921;-46
2021/07/07 04:29:22;;;;;;;4.90;4.40;;;;;;;21.66;100.00;100716.52;1766377;79;21643;-45
2021/07/07 04:31:49;;;;;;;4.72;4.30;;;;;;;21.69;100.00;100714.84;1763079;79;20985;-40
2021/07/07 04:34:16;;;;;;;6.45;3.72;;;;;;;21.72;100.00;100712.69;1762016;79;20958;-45
2021/07/07 04:36:43;;;;;;;4.55;4.05;;;;;;;21.75;100.00;100719.66;1765658;79;21583;-44
2021/07/07 04:39:10;;;;;;;5.92;4.12;;;;;;;21.79;100.00;100722.39;1765545;79;21484;-44
2021/07/07 04:41:37;;;;;;;5.92;4.40;;;;;;;21.82;100.00;100720.71;1764204;79;20952;-42
2021/07/07 04:44:04;;;;;;;4.80;3.60;;;;;;;21.85;100.00;100723.61;1776828;79;20958;-43
2021/07/07 04:46:30;;;;;;;4.78;4.28;;;;;;;21.87;100.00;100725.16;1765042;79;21353;-45
2021/07/07 04:48:58;;;;;;;4.62;4.10;;;;;;;21.91;100.00;100733.34;1761146;79;20982;-45
2021/07/07 04:51:25;;;;;;;4.60;3.65;;;;;;;21.95;100.00;100732.55;1765424;79;20968;-45
2021/07/07 04:53:52;;;;;;;4.47;3.52;;;;;;;21.97;100.00;100734.09;1764493;79;21050;-42
2021/07/07 04:56:18;;;;;;;7.30;4.10;;;;;;;22.00;100.00;100732.92;1766483;79;21855;-43
2021/07/07 04:58:45;;;;;;;4.40;3.98;;;;;;;22.03;100.00;100723.95;1767381;79;21697;-46
2021/07/07 05:01:11;;;;;;;4.97;4.25;;;;;;;22.07;100.00;100731.77;1775923;79;20960;-46
2021/07/07 05:03:39;;;;;;;4.72;3.50;;;;;;;22.10;100.00;100734.16;1778046;79;20973;-43
2021/07/07 05:06:05;;;;;;;5.37;4.85;;;;;;;22.12;100.00;100733.50;1774258;79;20956;-43
2021/07/07 05:08:33;;;;;;;5.65;3.72;;;;;;;22.14;100.00;100736.41;1740511;79;20978;-42
2021/07/07 05:11:01;;;;;;;5.35;4.17;;;;;;;22.17;100.00;100737.44;1751034;80;20949;-43
2021/07/07 05:13:27;;;;;;;4.37;3.87;;;;;;;22.22;100.00;100739.20;1769015;79;20959;-42
2021/07/07 05:15:54;;;;;;;5.08;3.60;;;;;;;22.23;100.00;100734.14;1786633;79;20946;-45
2021/07/07 05:18:21;;;;;;;3.70;3.35;;;;;;;22.28;100.00;100735.53;1772408;79;20965;-44
2021/07/07 05:20:47;;;;;;;4.37;3.77;;;;;;;22.33;100.00;100735.91;1748340;81;20973;-43
2021/07/07 05:23:15;;;;;;;6.50;3.60;;;;;;;22.38;100.00;100737.12;1786382;79;21003;-48
2021/07/07 05:25:43;;;;;;;3.17;2.40;;;;;;;22.43;100.00;100727.98;1769903;79;20947;-44
2021/07/07 05:28:11;;;;;;;3.92;3.37;;;;;;;22.49;100.00;100734.63;1774508;79;20967;-43
2021/07/07 05:30:37;;;;;;;3.30;2.55;;;;;;;22.55;100.00;100739.41;1784527;79;20951;-46
2021/07/07 05:33:07;;;;;;;4.62;2.95;;;;;;;22.59;100.00;100738.08;1760586;80;20994;-46
2021/07/07 05:35:35;;;;;;;4.72;3.02;;;;;;;22.62;100.00;100742.34;1790400;79;21012;-45
2021/07/07 05:38:03;;;;;;;4.30;2.58;;;;;;;22.65;100.00;100734.73;1757623;80;20967;-45
2021/07/07 05:40:30;;;;;;;4.47;2.42;;;;;;;22.66;100.00;100733.70;1759708;80;20953;-45
2021/07/07 05:42:57;;;;;;;3.60;2.27;;;;;;;22.70;100.00;100736.94;1784255;79;20979;-43
2021/07/07 05:45:25;;;;;;;3.33;2.60;;;;;;;22.74;100.00;100738.84;1756902;80;21518;-45
2021/07/07 05:47:52;;;;;;;3.67;2.83;;;;;;;22.76;100.00;100739.53;1795417;79;21528;-45
2021/07/07 05:50:19;;;;;;;2.72;2.35;;;;;;;22.77;100.00;100739.87;1790196;79;20968;-46
2021/07/07 05:52:46;;;;;;;5.45;2.45;;;;;;;22.77;100.00;100745.30;1757520;80;20979;-44
2021/07/07 05:55:13;;;;;;;3.62;2.40;;;;;;;22.78;100.00;100745.64;1789867;79;20955;-41
2021/07/07 05:57:40;;;;;;;3.35;2.40;;;;;;;22.73;100.00;100741.20;1752639;80;20968;-43
2021/07/07 06:00:14;;;;;;;2.87;2.55;;;;;;;22.71;100.00;100747.33;1755189;80;21075;-47
2021/07/07 06:02:41;;;;;;;4.47;2.83;;;;;;;22.69;100.00;100754.27;1756534;80;20952;-43
2021/07/07 06:05:09;;;;;;;3.47;3.00;;;;;;;22.69;100.00;100754.27;1752462;80;20964;-45
2021/07/07 06:07:36;;;;;;;3.42;2.67;;;;;;;22.68;100.00;100746.63;1779994;79;20959;-46
2021/07/07 06:10:04;;;;;;;3.85;3.50;;;;;;;22.73;100.00;100756.14;1749478;81;20941;-46
2021/07/07 06:12:31;;;;;;;4.85;4.35;;;;;;;22.76;100.00;100760.77;1753913;80;20943;-46
2021/07/07 06:14:57;;;;;;;3.75;2.92;;;;;;;22.80;100.00;100759.41;1783632;79;20915;-47
2021/07/07 06:17:24;;;;;;;3.40;3.10;;;;;;;22.82;100.00;100762.82;1783787;79;20958;-52
2021/07/07 06:19:51;;;;;;;2.85;2.55;;;;;;;22.83;100.00;100761.83;1789031;79;20927;-42
2021/07/07 06:22:19;;;;;;;5.90;2.60;;;;;;;22.84;100.00;100763.52;1786300;79;21006;-46
2021/07/07 06:24:45;;;;;;;6.12;3.27;;;;;;;22.86;100.00;100768.29;1784670;79;20982;-47
2021/07/07 06:27:12;;;;;;;6.80;2.30;;;;;;;22.88;100.00;100764.03;1748212;80;20954;-46
2021/07/07 06:29:39;;;;;;;2.40;2.20;;;;;;;22.89;100.00;100759.80;1741617;81;20965;-47
2021/07/07 06:32:06;;;;;;;2.87;2.33;;;;;;;22.91;100.00;100766.45;1727820;81;21011;-45
2021/07/07 06:34:33;;;;;;;2.40;2.20;;;;;;;22.92;100.00;100764.06;1726721;81;20971;-48
2021/07/07 06:37:00;;;;;;;3.90;2.40;;;;;;;22.94;100.00;100760.67;1735872;81;20998;-45
2021/07/07 06:39:27;;;;;;;3.47;1.98;;;;;;;22.96;100.00;100760.52;1746064;81;20946;-46
2021/07/07 06:41:54;;;;;;;3.27;1.80;;;;;;;23.01;100.00;100769.07;1740719;81;21312;-47
2021/07/07 06:44:20;;;;;;;1.98;1.67;;;;;;;23.05;100.00;100769.07;1739211;81;20957;-53
2021/07/07 06:46:47;;;;;;;3.75;2.25;;;;;;;23.08;100.00;100772.81;1739318;81;20997;-49
2021/07/07 06:49:14;;;;;;;4.08;1.80;;;;;;;23.10;100.00;100772.99;1741930;81;20970;-46
2021/07/07 06:51:41;;;;;;;2.17;1.50;;;;;;;23.13;100.00;100773.17;1741234;81;20970;-44
2021/07/07 06:54:08;;;;;;;2.08;1.65;;;;;;;23.16;100.00;100766.55;1728881;81;20983;-43
2021/07/07 06:56:34;;;;;;;1.87;1.50;;;;;;;23.19;100.00;100770.33;1711141;82;21400;-40
2021/07/07 06:59:01;;;;;;;2.50;1.67;;;;;;;23.25;100.00;100773.22;1711113;82;21026;-41
2021/07/07 07:01:29;;;;;;;3.60;1.80;;;;;;;23.30;100.00;100767.28;1707035;82;21038;-39
2021/07/07 07:03:56;;;;;;;3.37;1.95;;;;;;;23.35;100.00;100771.72;1708444;82;20984;-42
2021/07/07 07:06:23;;;;;;;2.40;1.82;;;;;;;23.40;100.00;100763.91;1708866;82;20998;-44
2021/07/07 07:08:51;;;;;;;2.17;1.75;;;;;;;23.45;100.00;100772.42;1709883;82;21001;-43
2021/07/07 07:11:19;;;;;;;2.55;2.02;;;;;;;23.50;100.00;100770.05;1715206;82;21018;-45
2021/07/07 07:13:48;;;;;;;4.03;2.15;;;;;;;23.57;100.00;100770.25;1743928;80;21332;-45
2021/07/07 07:16:14;;;;;;;3.17;2.33;;;;;;;23.65;100.00;100772.13;1744280;80;20936;-43
2021/07/07 07:18:41;;;;;;;2.62;2.20;;;;;;;23.71;100.00;100771.44;1748609;80;21014;-43
2021/07/07 07:21:08;;;;;;;4.72;1.72;;;;;;;23.77;100.00;100764.53;1743478;80;21003;-42
2021/07/07 07:23:34;;;;;;;3.33;1.70;;;;;;;23.83;100.00;100770.65;1746167;80;21028;-41
2021/07/07 07:26:01;;;;;;;3.83;2.15;;;;;;;23.89;100.00;100764.52;1750996;80;21031;-44
2021/07/07 07:28:28;;;;;;;5.28;2.30;;;;;;;23.95;100.00;100766.05;1772716;79;21549;-43
2021/07/07 07:30:57;;;;;;;2.87;2.42;;;;;;;24.00;100.00;100767.43;1766237;79;20960;-43
2021/07/07 07:33:24;;;;;;;3.47;2.87;;;;;;;24.04;100.00;100774.22;1769959;79;21022;-42
2021/07/07 07:35:51;;;;;;;3.37;2.35;;;;;;;24.06;100.00;100774.91;1767427;79;21004;-43
2021/07/07 07:38:39;;;;;;;2.42;2.02;;;;;;;24.07;100.00;100771.17;1768004;79;21396;-45
2021/07/07 07:41:02;;;;;;;4.72;2.40;;;;;;;24.09;100.00;100780.88;1764277;79;20991;-43
2021/07/07 07:43:28;;;;;;;2.92;2.08;;;;;;;24.10;100.00;100777.12;1765325;79;20993;-45
2021/07/07 07:45:56;;;;;;;3.80;2.27;;;;;;;24.11;100.00;100777.97;1794035;78;20978;-43
2021/07/07 07:48:46;;;;;;;2.95;2.10;;;;;;;24.13;100.00;100782.22;1768669;79;20989;-44
2021/07/07 07:51:41;;;;;;;2.80;2.30;;;;;;;24.16;100.00;100790.56;1673462;84;20991;-48
2021/07/07 07:54:08;;;;;;;4.53;2.33;;;;;;;24.19;100.00;100785.64;1602625;88;21086;-45
2021/07/07 07:56:35;;;;;;;8.98;7.15;;;;;;;24.23;100.00;100788.86;1607283;88;21022;-45
2021/07/07 07:59:03;;;;;;;5.00;3.62;;;;;;;24.26;100.00;100784.94;1601830;87;21135;-48
2021/07/07 08:01:29;;;;;;;4.75;2.65;;;;;;;24.27;100.00;100792.11;1601284;88;20946;-47
2021/07/07 08:03:56;;;;;;;5.20;3.02;;;;;;;24.27;100.00;100786.14;1611877;87;21067;-44
2021/07/07 08:06:23;;;;;;;2.65;2.45;;;;;;;24.30;100.00;100795.33;1609974;87;21090;-45
2021/07/07 08:08:50;;;;;;;2.83;2.17;;;;;;;24.32;100.00;100796.02;1606612;87;21081;-43
2021/07/07 08:11:17;;;;;;;3.47;2.95;;;;;;;24.34;100.00;100792.61;1612936;87;21355;-46
2021/07/07 08:13:44;;;;;;;4.67;2.75;;;;;;;24.36;100.00;100788.33;1612662;87;21002;-46
2021/07/07 08:16:11;;;;;;;3.72;2.08;;;;;;;24.38;100.00;100788.50;1607888;88;21066;-47
2021/07/07 08:18:38;;;;;;;5.05;2.47;;;;;;;24.41;100.00;100790.03;1608636;88;21007;-44
2021/07/07 08:21:04;;;;;;;3.30;2.25;;;;;;;24.45;100.00;100790.55;1587032;89;20992;-44
2021/07/07 08:23:31;;;;;;;3.52;2.60;;;;;;;24.50;100.00;100788.19;1606100;88;21057;-41
2021/07/07 08:25:58;;;;;;;3.42;2.42;;;;;;;24.55;100.00;100792.61;1603854;88;21526;-45
2021/07/07 08:28:25;;;;;;;2.62;2.25;;;;;;;24.58;100.00;100791.73;1634955;84;21010;-42
2021/07/07 08:30:54;;;;;;;4.33;2.98;;;;;;;24.62;100.00;100790.89;1702818;80;21527;-46
2021/07/07 08:33:20;;;;;;;4.17;2.20;;;;;;;24.64;100.00;100787.98;1770378;79;21021;-41
2021/07/07 08:35:47;;;;;;;2.65;2.37;;;;;;;24.68;100.00;100794.27;1769234;79;21232;-45
2021/07/07 08:38:13;;;;;;;4.33;2.35;;;;;;;24.71;100.00;100793.92;1768452;79;20961;-45
2021/07/07 08:40:40;;;;;;;3.20;2.10;;;;;;;24.76;100.00;100789.31;1770987;79;20947;-46
2021/07/07 08:43:06;;;;;;;2.65;1.98;;;;;;;24.79;100.00;100795.25;1769666;80;21409;-44
2021/07/07 08:45:33;;;;;;;3.58;2.00;;;;;;;24.83;100.00;100802.06;1765297;79;20964;-44
2021/07/07 08:48:00;;;;;;;4.75;2.42;;;;;;;24.88;100.00;100799.34;1765474;79;21564;-44
2021/07/07 08:50:30;;;;;;;6.33;2.22;;;;;;;24.94;100.00;100802.71;1769225;79;20968;-44
2021/07/07 08:53:00;;;;;;;3.50;2.30;;;;;;;24.99;100.00;100798.94;1772047;79;20997;-43
2021/07/07 08:55:26;;;;;;;2.37;1.82;;;;;;;25.04;100.00;100801.99;1769682;80;20977;-43
2021/07/07 08:57:53;;;;;;;6.15;2.50;;;;;;;25.10;100.00;100805.88;1771578;79;21012;-42
2021/07/07 09:00:33;;;;;;;3.75;2.02;;;;;;;25.15;100.00;100800.74;1769882;79;20950;-43
2021/07/07 09:03:05;;;;;;;4.58;2.33;;;;;;;25.21;100.00;100808.27;1757193;79;21562;-44
2021/07/07 09:05:51;;;;;;;5.22;1.95;;;;;;;25.28;100.00;100803.81;1763314;80;20944;-41
2021/07/07 09:08:35;;;;;;;2.95;1.90;;;;;;;25.32;100.00;100813.84;1769514;79;21441;-42
2021/07/07 09:11:22;;;;;;;2.35;1.72;;;;;;;25.39;99.73;100812.11;1768144;79;20886;-42
2021/07/07 09:14:12;;;;;;;2.77;2.00;;;;;;;25.45;98.34;100812.73;1766347;80;20955;-41
2021/07/07 09:16:56;;;;;;;5.67;2.50;;;;;;;25.52;99.47;100816.45;1767967;79;21456;-44
2021/07/07 09:19:22;;;;;;;4.33;2.80;;;;;;;25.58;100.00;100814.39;1741302;81;20983;-42
2021/07/07 09:21:52;;;;;;;4.33;2.58;;;;;;;25.64;97.40;100825.95;1740915;81;21383;-44
2021/07/07 09:24:23;;;;;;;3.20;2.10;;;;;;;25.70;96.12;100820.27;1742575;81;21000;-42
2021/07/07 09:27:10;;;;;;;2.20;1.90;;;;;;;25.75;95.75;100814.27;1760433;80;21490;-42
2021/07/07 09:29:52;;;;;;;6.03;2.37;;;;;;;25.81;93.95;100819.03;1760240;80;21335;-43
2021/07/07 09:32:29;;;;;;;3.12;1.95;;;;;;;25.88;100.00;100826.87;1756922;80;20947;-45
2021/07/07 09:35:03;;;;;;;4.80;2.20;;;;;;;25.92;95.49;100824.61;1759652;80;20990;-43
2021/07/07 09:37:38;;;;;;;3.00;2.10;;;;;;;25.96;94.92;100820.49;1787047;79;20910;-42
2021/07/07 09:40:09;;;;;;;2.40;1.92;;;;;;;26.00;92.66;100821.81;1757931;80;20996;-41
2021/07/07 09:42:37;;;;;;;1.87;1.77;;;;;;;26.02;87.16;100821.96;1786926;79;21864;-50
2021/07/07 09:45:06;;;;;;;2.80;1.75;;;;;;;26.05;90.35;100818.86;1768740;79;20941;-49
2021/07/07 09:47:34;;;;;;;2.83;1.90;;;;;;;26.07;91.08;100830.45;1750073;80;21455;-44
2021/07/07 09:50:00;;;;;;;4.83;1.72;;;;;;;26.10;91.03;100823.78;1782695;79;20951;-43
2021/07/07 09:52:29;;;;;;;2.27;1.92;;;;;;;26.15;89.33;100834.16;1784876;79;20935;-43
2021/07/07 09:54:56;;;;;;;2.40;1.92;;;;;;;26.19;87.39;100832.25;1758208;80;21756;-41
2021/07/07 09:57:23;;;;;;;3.58;2.08;;;;;;;26.23;89.64;100838.19;1783982;79;20958;-41
2021/07/07 09:59:50;;;;;;;2.62;1.75;;;;;;;26.28;90.63;100848.05;1747174;80;20997;-43
2021/07/07 10:02:16;;;;;;;4.65;2.17;;;;;;;26.31;90.30;100840.34;1784192;79;20931;-41
2021/07/07 10:04:44;;;;;;;2.90;1.90;;;;;;;26.35;88.90;100844.92;1786317;79;21442;-43
2021/07/07 10:07:13;;;;;;;3.20;2.00;;;;;;;26.40;92.54;100849.31;1782250;79;20947;-43
2021/07/07 10:09:44;;;;;;;2.70;1.75;;;;;;;26.44;90.45;100853.91;1781209;79;20961;-41
2021/07/07 10:12:10;;;;;;;5.17;1.80;;;;;;;26.46;91.28;100853.19;1785487;79;21411;-42
2021/07/07 10:14:37;;;;;;;2.15;1.98;;;;;;;26.48;91.47;100850.59;1759229;80;20967;-42
2021/07/07 10:17:05;;;;;;;2.58;1.90;;;;;;;26.51;91.40;100854.36;1756279;79;20983;-44
2021/07/07 10:19:32;;;;;;;2.72;1.60;;;;;;;26.52;84.96;100853.83;1784040;79;20975;-43
2021/07/07 10:21:58;;;;;;;2.85;1.95;;;;;;;26.55;89.33;100856.22;1784391;79;20939;-43
2021/07/07 10:24:28;;;;;;;2.95;1.80;;;;;;;26.56;81.13;100845.63;1787848;79;20998;-44
2021/07/07 10:26:58;;;;;;;2.53;2.00;;;;;;;26.57;80.18;100850.58;1780834;79;21033;-43
2021/07/07 10:29:26;;;;;;;3.17;1.85;;;;;;;26.57;80.18;100850.58;1765827;79;21660;-48
2021/07/07 10:31:58;;;;;;;2.30;1.72;;;;;;;26.57;76.46;100854.68;1772235;80;20988;-47
2021/07/07 10:34:27;;;;;;;3.85;1.72;;;;;;;26.58;78.33;100853.11;1763940;79;20944;-48
2021/07/07 10:36:55;;;;;;;2.40;2.10;;;;;;;26.62;78.59;100854.97;1767006;79;21026;-46
2021/07/07 10:39:22;;;;;;;2.47;1.87;;;;;;;26.65;75.97;100859.53;1773867;79;20966;-43
2021/07/07 10:41:54;;;;;;;2.30;1.80;;;;;;;26.70;78.52;100851.63;1771589;79;20938;-44
2021/07/07 10:44:30;;;;;;;2.47;1.92;;;;;;;26.73;80.46;100851.24;1784092;79;20965;-42
2021/07/07 10:47:06;;;;;;;2.85;2.08;;;;;;;26.78;80.00;100852.06;1779517;79;21537;-40
2021/07/07 10:49:41;;;;;;;3.00;2.00;;;;;;;26.83;80.58;100851.50;1778246;79;20957;-43
2021/07/07 10:52:09;;;;;;;2.40;1.67;;;;;;;26.84;75.91;100851.82;1780482;79;20966;-43
2021/07/07 10:54:41;;;;;;;2.17;1.70;;;;;;;26.87;77.84;100857.78;1760356;80;21012;-41
2021/07/07 10:57:10;;;;;;;2.75;1.95;;;;;;;26.88;76.33;100847.69;1765118;79;20914;-42
2021/07/07 10:59:46;;;;;;;3.12;1.90;;;;;;;26.92;76.82;100859.96;1763724;79;21608;-41
2021/07/07 11:02:20;;;;;;;2.83;2.02;;;;;;;26.94;79.45;100853.27;1756060;80;20940;-42
2021/07/07 11:04:53;;;;;;;2.80;1.57;;;;;;;27.00;80.89;100853.55;1768537;80;20966;-42
2021/07/07 11:07:40;;;;;;;2.37;1.95;;;;;;;27.04;79.62;100849.38;1763372;80;20917;-42
2021/07/07 11:10:19;;;;;;;3.15;2.05;;;;;;;27.09;80.40;100853.77;1784437;79;21432;-42
2021/07/07 11:12:57;;;;;;;3.25;1.87;;;;;;;27.14;76.98;100849.45;1769911;79;21540;-42
2021/07/07 11:15:24;;;;;;;2.70;2.17;;;;;;;27.18;83.74;100843.09;1769755;79;20925;-42
2021/07/07 11:17:56;;;;;;;2.85;2.00;;;;;;;27.21;78.39;100847.34;1774029;79;21056;-42
2021/07/07 11:20:25;;;;;;;2.95;2.47;;;;;;;27.24;76.21;100849.69;1766069;79;20950;-42
2021/07/07 11:23:07;;;;;;;3.20;2.10;;;;;;;27.28;78.29;100849.65;1759913;79;20981;-42
2021/07/07 11:25:38;;;;;;;3.60;2.02;;;;;;;27.30;76.49;100847.05;1745722;80;20986;-43